createdAt,value
2022-08-16T00:01:21.869Z,11.57
2022-08-16T00:03:52.160Z,10.88
2022-08-16T00:06:19.982Z,11.50
2022-08-16T00:08:48.415Z,12.10
2022-08-16T00:11:17.292Z,11.32
2022-08-16T00:13:53.918Z,10.70
2022-08-16T00:17:00.823Z,12.30
2022-08-16T00:19:10.061Z,13.85
2022-08-16T00:21:41.273Z,13.25
2022-08-16T00:24:12.292Z,13.93
2022-08-16T00:26:44.945Z,11.10
2022-08-16T00:29:13.453Z,13.13
2022-08-16T00:31:59.498Z,12.93
2022-08-16T00:34:41.347Z,12.70
2022-08-16T00:37:18.529Z,14.65
2022-08-16T00:39:56.818Z,17.35
2022-08-16T00:42:30.434Z,13.60
2022-08-16T00:45:08.117Z,15.10
2022-08-16T00:47:36.964Z,16.02
2022-08-16T00:50:05.360Z,13.93
2022-08-16T00:52:38.858Z,13.30
2022-08-16T00:55:17.666Z,13.02
2022-08-16T00:57:58.723Z,16.70
2022-08-16T01:00:29.154Z,13.65
2022-08-16T01:02:59.963Z,14.80
2022-08-16T01:05:27.544Z,16.58
2022-08-16T01:07:55.327Z,19.90
2022-08-16T01:10:32.123Z,20.35
2022-08-16T01:13:05.976Z,14.45
2022-08-16T01:15:34.429Z,16.25
2022-08-16T01:18:02.882Z,14.73
2022-08-16T01:20:34.040Z,14.90
2022-08-16T01:23:08.686Z,15.23
2022-08-16T01:25:39.542Z,16.38
2022-08-16T01:28:08.821Z,14.45
2022-08-16T01:30:39.997Z,16.70
2022-08-16T01:33:17.508Z,16.73
2022-08-16T01:35:52.634Z,14.68
2022-08-16T01:38:22.261Z,16.63
2022-08-16T01:40:56.416Z,14.93
2022-08-16T01:43:24.946Z,15.63
2022-08-16T01:45:57.638Z,15.02
2022-08-16T01:48:26.650Z,14.45
2022-08-16T01:51:09.488Z,14.88
2022-08-16T01:53:42.629Z,16.73
2022-08-16T01:56:24.457Z,16.58
2022-08-16T01:58:52.859Z,17.58
2022-08-16T02:01:20.560Z,17.02
2022-08-16T02:03:50.574Z,16.73
2022-08-16T02:06:26.025Z,16.25
2022-08-16T02:09:02.388Z,17.42
2022-08-16T02:11:48.402Z,16.40
2022-08-16T02:14:21.393Z,15.55
2022-08-16T02:16:49.215Z,15.63
2022-08-16T02:19:18.316Z,15.77
2022-08-16T02:22:08.962Z,18.15
2022-08-16T02:24:41.061Z,18.20
2022-08-16T02:27:11.041Z,15.90
2022-08-16T02:29:38.529Z,16.48
2022-08-16T02:32:51.148Z,17.95
2022-08-16T02:34:57.471Z,18.00
2022-08-16T02:37:39.766Z,17.38
2022-08-16T02:40:13.181Z,17.48
2022-08-16T02:42:45.496Z,20.90
2022-08-16T02:45:15.701Z,16.33
2022-08-16T02:48:01.317Z,16.83
2022-08-16T02:50:54.634Z,17.50
2022-08-16T02:53:23.350Z,16.63
2022-08-16T02:55:51.233Z,18.02
2022-08-16T02:58:20.092Z,19.38
2022-08-16T03:00:52.820Z,17.80
2022-08-16T03:03:24.790Z,20.13
2022-08-16T03:05:53.214Z,17.25
2022-08-16T03:08:50.589Z,20.02
2022-08-16T03:11:16.792Z,17.15
2022-08-16T03:13:47.904Z,18.33
2022-08-16T03:16:37.649Z,20.48
2022-08-16T03:19:06.678Z,16.58
2022-08-16T03:21:37.715Z,19.10
2022-08-16T03:24:06.482Z,18.38
2022-08-16T03:26:53.882Z,19.55
2022-08-16T03:29:30.053Z,20.45
2022-08-16T03:31:59.018Z,17.98
2022-08-16T03:34:27.113Z,17.65
2022-08-16T03:36:54.545Z,20.00
2022-08-16T03:39:22.244Z,20.02
2022-08-16T03:41:51.313Z,18.48
2022-08-16T03:44:44.405Z,17.55
2022-08-16T03:47:18.965Z,15.98
2022-08-16T03:49:51.221Z,17.40
2022-08-16T03:52:20.131Z,17.40
2022-08-16T03:54:53.150Z,17.23
2022-08-16T03:57:21.372Z,18.42
2022-08-16T03:59:51.063Z,17.77
2022-08-16T04:02:22.543Z,16.98
2022-08-16T04:04:58.603Z,19.77
2022-08-16T04:07:26.207Z,16.65
2022-08-16T04:09:53.650Z,19.05
2022-08-16T04:12:52.438Z,17.48
2022-08-16T04:15:11.441Z,17.27
2022-08-16T04:17:44.705Z,17.90
2022-08-16T04:20:29.466Z,17.27
2022-08-16T04:23:01.133Z,17.73
2022-08-16T04:25:29.399Z,20.08
2022-08-16T04:27:56.891Z,19.25
2022-08-16T04:30:32.326Z,20.08
2022-08-16T04:33:04.389Z,19.60
2022-08-16T04:35:34.000Z,19.15
2022-08-16T04:38:10.656Z,18.48
2022-08-16T04:40:38.936Z,19.30
2022-08-16T04:43:06.622Z,21.23
2022-08-16T04:45:37.047Z,21.83
2022-08-16T04:48:05.316Z,28.67
2022-08-16T04:50:32.900Z,24.45
2022-08-16T04:53:00.712Z,23.23
2022-08-16T04:55:37.540Z,24.27
2022-08-16T04:58:43.979Z,20.27
2022-08-16T05:00:55.366Z,21.73
2022-08-16T05:03:24.143Z,20.55
2022-08-16T05:05:59.007Z,21.17
2022-08-16T05:08:30.533Z,20.73
2022-08-16T05:11:00.193Z,23.38
2022-08-16T05:13:40.977Z,21.63
2022-08-16T05:16:11.861Z,22.20
2022-08-16T05:18:43.936Z,20.38
2022-08-16T05:21:12.612Z,20.42
2022-08-16T05:23:40.145Z,22.23
2022-08-16T05:26:12.383Z,23.67
2022-08-16T05:28:47.940Z,22.00
2022-08-16T05:31:29.695Z,22.60
2022-08-16T05:33:58.014Z,23.90
2022-08-16T05:36:34.347Z,22.48
2022-08-16T05:39:05.485Z,23.70
2022-08-16T05:41:33.396Z,23.92
2022-08-16T05:44:23.434Z,20.67
2022-08-16T05:46:54.927Z,23.52
2022-08-16T05:51:50.887Z,19.80
2022-08-16T05:54:25.123Z,28.40
2022-08-16T05:56:52.998Z,23.23
2022-08-16T05:59:21.965Z,25.23
2022-08-16T06:01:50.433Z,25.10
2022-08-16T06:04:36.890Z,20.83
2022-08-16T06:07:07.051Z,21.10
2022-08-16T06:09:42.879Z,22.90
2022-08-16T06:12:11.211Z,21.15
2022-08-16T06:14:40.163Z,25.33
2022-08-16T06:17:07.776Z,23.15
2022-08-16T06:19:36.565Z,25.42
2022-08-16T06:22:09.010Z,21.85
2022-08-16T06:24:54.846Z,22.20
2022-08-16T06:27:23.248Z,22.25
2022-08-16T06:29:51.535Z,21.05
2022-08-16T06:32:27.520Z,20.65
2022-08-16T06:35:02.879Z,22.42
2022-08-16T06:37:36.952Z,21.83
2022-08-16T06:40:13.074Z,22.75
2022-08-16T06:42:47.937Z,23.17
2022-08-16T06:45:16.066Z,22.95
2022-08-16T06:47:52.865Z,23.88
2022-08-16T06:50:29.928Z,22.25
2022-08-16T06:53:00.917Z,24.42
2022-08-16T06:55:38.319Z,24.40
2022-08-16T06:58:08.742Z,21.45
2022-08-16T07:00:50.069Z,22.40
2022-08-16T07:03:27.769Z,22.13
2022-08-16T07:06:01.009Z,21.85
2022-08-16T07:08:28.791Z,20.50
2022-08-16T07:10:56.677Z,23.85
2022-08-16T07:14:00.332Z,22.20
2022-08-16T07:16:15.278Z,20.83
2022-08-16T07:19:01.462Z,20.55
2022-08-16T07:21:45.578Z,20.08
2022-08-16T07:24:29.435Z,20.73
2022-08-16T07:26:58.125Z,19.48
2022-08-16T07:29:25.855Z,20.10
2022-08-16T07:31:53.920Z,21.50
2022-08-16T07:34:35.585Z,19.73
2022-08-16T07:37:07.923Z,19.75
2022-08-16T07:39:43.313Z,19.48
2022-08-16T07:42:26.152Z,18.70
2022-08-16T07:44:58.890Z,21.77
2022-08-16T07:47:31.713Z,20.15
2022-08-16T07:49:59.618Z,19.65
2022-08-16T07:52:29.816Z,20.42
2022-08-16T07:54:57.611Z,18.80
2022-08-16T07:57:25.182Z,18.42
2022-08-16T07:59:53.810Z,19.33
2022-08-16T08:02:27.486Z,17.95
2022-08-16T08:07:22.990Z,16.67
2022-08-16T08:09:56.517Z,16.90
2022-08-16T08:12:32.399Z,16.50
2022-08-16T08:15:04.160Z,17.23
2022-08-16T08:18:41.444Z,18.60
2022-08-16T08:20:28.108Z,19.25
2022-08-16T08:23:00.626Z,18.00
2022-08-16T08:25:52.118Z,17.98
2022-08-16T08:28:18.289Z,20.83
2022-08-16T08:30:52.070Z,19.60
2022-08-16T08:33:28.485Z,17.48
2022-08-16T08:35:56.730Z,16.73
2022-08-16T08:38:45.321Z,15.98
2022-08-16T08:41:13.309Z,17.33
2022-08-16T08:43:42.798Z,16.75
2022-08-16T08:46:12.421Z,17.45
2022-08-16T08:48:46.361Z,16.60
2022-08-16T08:51:31.977Z,17.25
2022-08-16T08:54:04.063Z,14.63
2022-08-16T08:56:37.290Z,14.52
2022-08-16T08:59:13.350Z,14.98
2022-08-16T09:01:57.503Z,11.98
2022-08-16T09:04:26.837Z,11.70
2022-08-16T09:06:54.576Z,13.52
2022-08-16T09:09:22.043Z,15.93
2022-08-16T09:12:04.246Z,11.57
2022-08-16T09:14:34.694Z,11.40
2022-08-16T09:17:21.523Z,11.88
2022-08-16T09:19:55.159Z,13.35
2022-08-16T09:22:24.965Z,12.32
2022-08-16T09:24:58.171Z,14.27
2022-08-16T09:27:56.780Z,11.40
2022-08-16T09:30:43.308Z,11.50
2022-08-16T09:33:12.905Z,10.93
2022-08-16T09:35:42.471Z,12.00
2022-08-16T09:38:12.094Z,11.27
2022-08-16T09:40:42.774Z,11.90
2022-08-16T09:43:37.703Z,13.10
2022-08-16T09:46:00.675Z,12.68
2022-08-16T09:48:44.205Z,13.68
2022-08-16T09:51:16.131Z,13.80
2022-08-16T09:53:47.395Z,10.37
2022-08-16T09:56:26.510Z,15.63
2022-08-16T09:59:04.929Z,13.20
2022-08-16T10:01:36.199Z,9.75
2022-08-16T10:04:04.770Z,12.50
2022-08-16T10:06:34.216Z,14.80
2022-08-16T10:09:05.760Z,9.75
2022-08-16T10:11:51.760Z,10.15
2022-08-16T10:14:24.868Z,9.75
2022-08-16T10:17:02.248Z,8.07
2022-08-16T10:19:31.931Z,9.63
2022-08-16T10:21:59.736Z,8.97
2022-08-16T10:24:32.806Z,11.68
2022-08-16T10:27:25.228Z,10.10
2022-08-16T10:30:01.001Z,10.13
2022-08-16T10:32:34.145Z,7.65
2022-08-16T10:35:03.621Z,6.90
2022-08-16T10:37:35.894Z,6.32
2022-08-16T10:40:05.363Z,6.20
2022-08-16T10:42:32.924Z,6.22
2022-08-16T10:45:02.699Z,7.03
2022-08-16T10:47:33.165Z,8.48
2022-08-16T10:50:06.662Z,5.05
2022-08-16T10:52:46.901Z,6.72
2022-08-16T10:58:11.642Z,6.68
2022-08-16T11:00:41.422Z,7.18
2022-08-16T11:03:42.839Z,5.33
2022-08-16T11:06:00.124Z,4.97
2022-08-16T11:08:35.813Z,6.93
2022-08-16T11:11:09.879Z,4.88
2022-08-16T11:19:16.789Z,4.47
2022-08-16T11:24:39.470Z,8.38
2022-08-16T11:27:20.568Z,7.75
2022-08-16T11:29:52.168Z,7.72
2022-08-16T11:32:29.678Z,5.88
2022-08-16T11:35:15.775Z,9.65
2022-08-16T11:40:34.196Z,5.07
2022-08-16T11:43:04.170Z,4.47
2022-08-16T11:45:33.836Z,5.57
2022-08-16T11:48:04.063Z,4.50
2022-08-16T11:50:33.218Z,6.87
2022-08-16T11:53:02.421Z,5.80
2022-08-16T11:55:31.297Z,5.53
2022-08-16T11:58:00.115Z,6.45
2022-08-16T12:00:50.234Z,6.00
2022-08-16T12:03:17.755Z,6.18
2022-08-16T12:05:45.866Z,4.78
2022-08-16T12:08:14.905Z,6.32
2022-08-16T12:10:46.523Z,5.45
2022-08-16T12:13:14.533Z,6.13
2022-08-16T12:15:42.363Z,4.35
2022-08-16T12:18:09.961Z,4.57
2022-08-16T12:20:40.277Z,8.38
2022-08-16T12:23:08.166Z,5.20
2022-08-16T12:25:36.509Z,5.13
2022-08-16T12:28:05.861Z,5.80
2022-08-16T12:30:38.754Z,4.13
2022-08-16T12:33:07.181Z,5.40
2022-08-16T12:35:35.553Z,5.22
2022-08-16T12:38:35.802Z,4.47
2022-08-16T12:40:57.094Z,6.55
2022-08-16T12:43:25.612Z,4.97
2022-08-16T12:45:54.420Z,4.30
2022-08-16T12:48:42.228Z,4.35
2022-08-16T12:51:19.657Z,5.18
2022-08-16T12:53:51.571Z,4.90
2022-08-16T12:56:20.074Z,5.27
2022-08-16T12:58:51.540Z,5.47
2022-08-16T13:01:19.794Z,4.03
2022-08-16T13:03:59.153Z,5.53
2022-08-16T13:06:33.771Z,6.00
2022-08-16T13:09:18.129Z,7.93
2022-08-16T13:11:52.209Z,5.57
2022-08-16T13:14:30.963Z,7.80
2022-08-16T13:16:59.891Z,6.28
2022-08-16T13:19:56.002Z,6.15
2022-08-16T13:22:19.752Z,6.63
2022-08-16T13:24:50.519Z,7.55
2022-08-16T13:27:18.831Z,6.07
2022-08-16T13:29:57.371Z,6.05
2022-08-16T13:32:40.666Z,6.22
2022-08-16T13:35:11.675Z,8.73
2022-08-16T13:37:39.696Z,7.15
2022-08-16T13:40:20.242Z,5.60
2022-08-16T13:42:49.580Z,4.30
2022-08-16T13:45:17.391Z,6.63
2022-08-16T13:47:48.502Z,6.65
2022-08-16T13:50:31.133Z,7.30
2022-08-16T13:53:07.963Z,3.50
2022-08-16T13:55:37.286Z,8.02
2022-08-16T13:58:35.614Z,3.97
2022-08-16T14:00:56.041Z,5.55
2022-08-16T14:03:24.673Z,4.22
2022-08-16T14:05:52.726Z,5.22
2022-08-16T14:08:23.968Z,5.88
2022-08-16T14:10:55.892Z,7.00
2022-08-16T14:13:23.831Z,5.15
2022-08-16T14:15:51.556Z,5.13
2022-08-16T14:18:20.011Z,3.83
2022-08-16T14:20:51.190Z,7.87
2022-08-16T14:23:23.815Z,4.45
2022-08-16T14:25:53.731Z,4.88
2022-08-16T14:28:23.693Z,4.50
2022-08-16T14:30:53.308Z,6.78
2022-08-16T14:33:21.144Z,7.95
2022-08-16T14:35:50.376Z,4.13
2022-08-16T14:38:23.962Z,4.30
2022-08-16T14:40:55.596Z,5.40
2022-08-16T14:43:24.784Z,7.25
2022-08-16T14:45:54.884Z,7.63
2022-08-16T14:48:26.209Z,4.80
2022-08-16T14:50:54.076Z,5.38
2022-08-16T14:53:22.831Z,4.90
2022-08-16T14:55:50.280Z,7.47
2022-08-16T14:58:20.268Z,6.20
2022-08-16T15:00:57.805Z,5.35
2022-08-16T15:03:25.860Z,6.97
2022-08-16T15:05:54.244Z,7.97
2022-08-16T15:08:37.198Z,6.40
2022-08-16T15:11:08.090Z,4.15
2022-08-16T15:13:35.663Z,4.70
2022-08-16T15:16:05.351Z,5.32
2022-08-16T15:18:34.405Z,4.93
2022-08-16T15:21:03.844Z,7.90
2022-08-16T15:23:33.857Z,6.30
2022-08-16T15:26:04.017Z,5.50
2022-08-16T15:31:03.591Z,6.53
2022-08-16T15:33:33.853Z,6.53
2022-08-16T15:36:02.219Z,6.60
2022-08-16T15:38:58.011Z,5.97
2022-08-16T15:41:31.688Z,5.60
2022-08-16T15:44:05.576Z,7.10
2022-08-16T15:46:54.931Z,5.70
2022-08-16T15:49:34.784Z,5.43
2022-08-16T15:52:15.179Z,6.55
2022-08-16T15:54:53.205Z,5.53
2022-08-16T15:57:21.500Z,8.98
2022-08-16T15:59:52.919Z,6.85
2022-08-16T16:02:29.514Z,8.18
2022-08-16T16:05:01.859Z,5.80
2022-08-16T16:07:30.458Z,5.90
2022-08-16T16:09:58.282Z,5.82
2022-08-16T16:15:15.053Z,5.55
2022-08-16T16:17:43.848Z,5.50
2022-08-16T16:20:14.913Z,5.00
2022-08-16T16:22:43.438Z,5.43
2022-08-16T16:25:11.111Z,4.07
2022-08-16T16:27:38.535Z,5.90
2022-08-16T16:30:32.591Z,7.28
2022-08-16T16:32:58.180Z,6.05
2022-08-16T16:35:32.931Z,4.80
2022-08-16T16:38:00.962Z,5.28
2022-08-16T16:40:32.537Z,5.20
2022-08-16T16:43:00.529Z,6.38
2022-08-16T16:45:34.730Z,4.43
2022-08-16T16:48:12.529Z,6.50
2022-08-16T16:50:44.711Z,5.60
2022-08-16T16:53:17.307Z,5.45
2022-08-16T16:55:47.667Z,6.03
2022-08-16T16:58:37.435Z,4.72
2022-08-16T17:01:05.703Z,6.20
2022-08-16T17:03:35.387Z,4.68
2022-08-16T17:06:09.197Z,6.88
2022-08-16T17:08:41.578Z,4.80
2022-08-16T17:11:09.707Z,4.65
2022-08-16T17:13:37.207Z,4.05
2022-08-16T17:16:06.119Z,3.97
2022-08-16T17:19:15.413Z,4.75
2022-08-16T17:21:24.957Z,6.35
2022-08-16T17:23:58.358Z,5.72
2022-08-16T17:26:29.888Z,4.10
2022-08-16T17:29:11.305Z,8.40
2022-08-16T17:31:43.234Z,3.80
2022-08-16T17:34:28.564Z,6.43
2022-08-16T17:39:27.264Z,3.92
2022-08-16T17:39:59.832Z,3.60
2022-08-16T17:42:33.618Z,4.18
2022-08-16T17:45:01.348Z,4.80
2022-08-16T17:47:28.788Z,4.03
2022-08-16T17:49:56.723Z,5.65
2022-08-16T17:52:25.725Z,4.55
2022-08-16T17:54:53.156Z,4.47
2022-08-16T17:57:20.536Z,4.45
2022-08-16T17:59:48.909Z,7.72
2022-08-16T18:02:44.114Z,4.68
2022-08-16T18:05:04.776Z,8.35
2022-08-16T18:07:35.275Z,6.82
2022-08-16T18:10:04.138Z,5.93
2022-08-16T18:12:55.022Z,8.15
2022-08-16T18:15:20.476Z,5.07
2022-08-16T18:17:48.417Z,7.90
2022-08-16T18:20:29.787Z,6.78
2022-08-16T18:23:04.514Z,10.52
2022-08-16T18:25:31.968Z,7.28
2022-08-16T18:27:59.447Z,10.90
2022-08-16T18:30:26.890Z,7.25
2022-08-16T18:32:54.368Z,9.40
2022-08-16T18:35:22.129Z,9.23
2022-08-16T18:37:49.913Z,8.55
2022-08-16T18:40:19.058Z,9.60
2022-08-16T18:42:53.385Z,12.55
2022-08-16T18:45:20.883Z,9.75
2022-08-16T18:47:48.337Z,8.10
2022-08-16T18:50:15.925Z,7.78
2022-08-16T18:52:49.203Z,9.57
2022-08-16T18:55:17.021Z,10.82
2022-08-16T18:57:46.885Z,14.70
2022-08-16T19:00:15.096Z,12.00
2022-08-16T19:02:57.875Z,12.15
2022-08-16T19:05:27.687Z,13.13
2022-08-16T19:07:55.216Z,13.52
2022-08-16T19:10:22.789Z,14.75
2022-08-16T19:12:51.593Z,15.73
2022-08-16T19:15:25.856Z,17.38
2022-08-16T19:17:53.808Z,16.52
2022-08-16T19:20:22.420Z,17.42
2022-08-16T19:23:10.593Z,17.13
2022-08-16T19:25:47.653Z,19.98
2022-08-16T19:28:48.329Z,21.77
2022-08-16T19:31:07.828Z,18.83
2022-08-16T19:33:35.524Z,20.73
2022-08-16T19:36:04.861Z,19.50
2022-08-16T19:38:32.287Z,20.10
2022-08-16T19:40:59.723Z,20.10
2022-08-16T19:43:28.592Z,20.35
2022-08-16T19:45:56.374Z,21.38
2022-08-16T19:48:23.807Z,24.25
2022-08-16T19:50:51.231Z,21.88
2022-08-16T19:53:19.553Z,24.25
2022-08-16T19:55:47.613Z,21.80
2022-08-16T19:58:16.981Z,22.25
2022-08-16T20:00:47.804Z,19.30
2022-08-16T20:03:21.836Z,22.50
2022-08-16T20:05:51.509Z,23.40
2022-08-16T20:08:19.031Z,25.08
2022-08-16T20:10:47.631Z,21.95
2022-08-16T20:13:16.408Z,24.23
2022-08-16T20:15:44.377Z,24.15
2022-08-16T20:18:24.518Z,25.65
2022-08-16T20:20:52.563Z,25.20
2022-08-16T20:23:24.335Z,24.15
2022-08-16T20:25:53.346Z,27.52
2022-08-16T20:28:33.454Z,23.55
2022-08-16T20:31:08.288Z,23.33
2022-08-16T20:33:37.143Z,24.05
2022-08-16T20:36:04.951Z,23.90
2022-08-16T20:38:32.363Z,25.52
2022-08-16T20:40:59.787Z,23.55
2022-08-16T20:43:27.310Z,26.05
2022-08-16T20:45:54.733Z,25.98
2022-08-16T20:48:22.292Z,24.85
2022-08-16T20:50:51.197Z,27.15
2022-08-16T20:53:18.674Z,25.58
2022-08-16T20:55:46.119Z,25.77
2022-08-16T20:58:13.628Z,25.50
2022-08-16T21:00:41.297Z,25.85
2022-08-16T21:03:09.355Z,24.95
2022-08-16T21:05:36.804Z,26.88
2022-08-16T21:08:51.067Z,26.98
2022-08-16T21:10:53.868Z,26.48
2022-08-16T21:13:21.714Z,25.85
2022-08-16T21:15:49.262Z,28.92
2022-08-16T21:18:16.682Z,30.25
2022-08-16T21:20:44.112Z,27.58
2022-08-16T21:23:12.889Z,28.08
2022-08-16T21:25:58.135Z,27.77
2022-08-16T21:28:40.138Z,31.48
2022-08-16T21:31:10.082Z,28.35
2022-08-16T21:33:37.561Z,30.77
2022-08-16T21:36:05.326Z,27.40
2022-08-16T21:38:34.081Z,26.65
2022-08-16T21:41:02.461Z,27.83
2022-08-16T21:43:32.196Z,25.65
2022-08-16T21:46:00.142Z,26.13
2022-08-16T21:48:34.869Z,27.67
2022-08-16T21:51:03.548Z,27.45
2022-08-16T21:53:31.039Z,28.30
2022-08-16T21:55:59.893Z,26.38
2022-08-16T21:58:27.352Z,27.20
2022-08-16T22:00:55.114Z,27.85
2022-08-16T22:03:23.358Z,28.27
2022-08-16T22:06:00.097Z,27.70
2022-08-16T22:08:39.447Z,28.35
2022-08-16T22:11:19.836Z,27.63
2022-08-16T22:13:52.788Z,27.08
2022-08-16T22:16:26.051Z,25.25
2022-08-16T22:18:53.462Z,25.80
2022-08-16T22:21:21.098Z,24.55
2022-08-16T22:23:55.311Z,23.30
2022-08-16T22:26:30.486Z,23.38
2022-08-16T22:28:58.814Z,24.33
2022-08-16T22:31:26.460Z,21.38
2022-08-16T22:33:53.884Z,25.65
2022-08-16T22:36:21.333Z,22.13
2022-08-16T22:38:55.205Z,25.83
2022-08-16T22:41:24.360Z,22.40
2022-08-16T22:43:53.282Z,22.42
2022-08-16T22:46:20.769Z,25.70
2022-08-16T22:48:50.418Z,22.77
2022-08-16T22:51:18.552Z,22.02
2022-08-16T22:53:46.011Z,22.52
2022-08-16T22:56:15.359Z,22.33
2022-08-16T22:58:42.821Z,24.15
2022-08-16T23:01:12.667Z,20.50
2022-08-16T23:03:40.463Z,21.40
2022-08-16T23:06:08.079Z,18.85
2022-08-16T23:08:40.256Z,18.52
2022-08-16T23:11:08.938Z,19.70
2022-08-16T23:13:36.403Z,18.45
2022-08-16T23:16:11.495Z,18.27
2022-08-16T23:18:41.558Z,18.88
2022-08-16T23:21:10.270Z,18.42
2022-08-16T23:23:38.235Z,17.83
2022-08-16T23:26:44.268Z,18.27
2022-08-16T23:28:54.510Z,18.15
2022-08-16T23:31:21.945Z,19.35
2022-08-16T23:33:50.885Z,17.83
2022-08-16T23:36:18.483Z,18.58
2022-08-16T23:38:45.889Z,19.83
2022-08-16T23:41:13.701Z,18.58
2022-08-16T23:43:43.344Z,18.00
2022-08-16T23:46:13.440Z,19.17
2022-08-16T23:49:59.217Z,20.20
2022-08-16T23:51:29.869Z,19.90
2022-08-16T23:53:57.319Z,17.85
2022-08-16T23:56:25.579Z,18.77
2022-08-16T23:59:02.165Z,19.17
